createdAt,value
2018-05-07T00:01:29.409Z,79.81
2018-05-07T00:02:29.964Z,79.72
2018-05-07T00:03:30.530Z,79.52
2018-05-07T00:04:31.066Z,79.14
2018-05-07T00:05:31.615Z,79.10
2018-05-07T00:06:32.165Z,79.20
2018-05-07T00:07:32.727Z,79.29
2018-05-07T00:08:33.252Z,79.10
2018-05-07T00:09:33.894Z,79.68
2018-05-07T00:10:34.432Z,79.20
2018-05-07T00:11:34.978Z,79.58
2018-05-07T00:12:35.439Z,80.06
2018-05-07T00:13:35.982Z,79.68
2018-05-07T00:14:36.532Z,80.54
2018-05-07T00:15:37.080Z,80.92
2018-05-07T00:16:37.626Z,81.30
2018-05-07T00:17:38.180Z,82.26
2018-05-07T00:18:38.726Z,82.17
2018-05-07T00:19:39.278Z,81.97
2018-05-07T00:20:39.887Z,82.17
2018-05-07T00:21:40.378Z,81.84
2018-05-07T00:22:40.928Z,82.31
2018-05-07T00:23:41.481Z,82.03
2018-05-07T00:24:42.023Z,82.26
2018-05-07T00:25:42.568Z,82.74
2018-05-07T00:26:43.115Z,82.60
2018-05-07T00:27:43.686Z,82.89
2018-05-07T00:28:44.215Z,82.98
2018-05-07T00:29:44.761Z,83.65
2018-05-07T00:30:45.314Z,83.94
2018-05-07T00:31:45.852Z,84.03
2018-05-07T00:32:46.401Z,83.94
2018-05-07T00:33:46.948Z,84.52
2018-05-07T00:34:47.497Z,84.80
2018-05-07T00:35:48.048Z,84.70
2018-05-07T00:36:48.595Z,84.89
2018-05-07T00:37:49.145Z,85.18
2018-05-07T00:38:49.697Z,84.89
2018-05-07T00:39:50.243Z,84.70
2018-05-07T00:40:50.788Z,84.52
2018-05-07T00:41:51.338Z,84.70
2018-05-07T00:42:51.888Z,84.23
2018-05-07T00:43:52.435Z,84.42
2018-05-07T00:44:52.977Z,83.94
2018-05-07T00:45:53.528Z,84.03
2018-05-07T00:46:54.073Z,83.84
2018-05-07T00:47:54.623Z,84.03
2018-05-07T00:48:55.170Z,84.52
2018-05-07T00:49:55.714Z,85.09
2018-05-07T00:50:56.257Z,85.24
2018-05-07T00:51:56.803Z,84.76
2018-05-07T00:52:57.356Z,84.37
2018-05-07T00:53:57.902Z,84.76
2018-05-07T00:54:58.446Z,84.76
2018-05-07T00:55:58.994Z,84.66
2018-05-07T00:56:59.542Z,85.14
2018-05-07T00:58:00.093Z,84.85
2018-05-07T00:59:00.641Z,85.24
2018-05-07T01:00:01.191Z,85.33
2018-05-07T01:01:01.740Z,84.56
2018-05-07T01:02:02.292Z,85.05
2018-05-07T01:03:02.840Z,85.90
2018-05-07T01:04:03.390Z,86.00
2018-05-07T01:05:03.936Z,86.29
2018-05-07T01:06:04.487Z,86.57
2018-05-07T01:07:05.034Z,86.57
2018-05-07T01:08:05.580Z,86.57
2018-05-07T01:09:06.128Z,86.67
2018-05-07T01:10:06.679Z,86.10
2018-05-07T01:11:07.230Z,86.57
2018-05-07T01:12:07.783Z,86.57
2018-05-07T01:13:08.334Z,86.10
2018-05-07T01:14:08.889Z,87.34
2018-05-07T01:15:09.437Z,88.15
2018-05-07T01:16:09.980Z,88.06
2018-05-07T01:17:10.530Z,89.20
2018-05-07T01:18:11.077Z,90.16
2018-05-07T01:19:11.625Z,90.25
2018-05-07T01:20:12.175Z,90.25
2018-05-07T01:21:12.724Z,89.97
2018-05-07T01:22:13.273Z,89.87
2018-05-07T01:23:13.865Z,89.30
2018-05-07T01:24:14.412Z,89.11
2018-05-07T01:25:14.958Z,89.20
2018-05-07T01:26:15.505Z,89.39
2018-05-07T01:27:16.047Z,89.97
2018-05-07T01:28:16.600Z,90.45
2018-05-07T01:29:17.146Z,90.25
2018-05-07T01:30:17.692Z,90.16
2018-05-07T01:31:18.242Z,90.25
2018-05-07T01:32:18.794Z,90.54
2018-05-07T01:33:19.336Z,90.92
2018-05-07T01:34:19.885Z,90.59
2018-05-07T01:35:20.430Z,90.83
2018-05-07T01:36:20.979Z,90.59
2018-05-07T01:37:21.530Z,91.36
2018-05-07T01:38:22.073Z,91.93
2018-05-07T01:39:22.617Z,92.12
2018-05-07T01:40:23.166Z,92.69
2018-05-07T01:41:23.714Z,92.50
2018-05-07T01:42:24.259Z,92.88
2018-05-07T01:43:24.808Z,93.26
2018-05-07T01:44:25.349Z,93.65
2018-05-07T01:45:25.894Z,94.41
2018-05-07T01:46:26.453Z,93.41
2018-05-07T01:47:26.983Z,94.17
2018-05-07T01:48:27.536Z,94.07
2018-05-07T01:49:28.086Z,94.46
2018-05-07T01:50:28.629Z,94.56
2018-05-07T01:51:29.174Z,94.27
2018-05-07T01:52:29.722Z,94.17
2018-05-07T01:53:30.274Z,93.88
2018-05-07T01:54:30.811Z,93.60
2018-05-07T01:55:31.355Z,93.79
2018-05-07T01:56:31.904Z,93.41
2018-05-07T01:57:32.450Z,93.79
2018-05-07T01:58:32.997Z,93.98
2018-05-07T01:59:33.544Z,94.36
2018-05-07T02:00:34.088Z,94.27
2018-05-07T02:01:34.636Z,94.07
2018-05-07T02:02:35.187Z,92.93
2018-05-07T02:03:35.735Z,93.02
2018-05-07T02:04:36.279Z,92.55
2018-05-07T02:05:36.825Z,92.74
2018-05-07T02:06:37.370Z,92.88
2018-05-07T02:07:37.922Z,93.07
2018-05-07T02:08:38.472Z,93.79
2018-05-07T02:09:39.022Z,94.46
2018-05-07T02:10:39.563Z,94.31
2018-05-07T02:11:40.112Z,93.79
2018-05-07T02:12:40.660Z,92.93
2018-05-07T02:13:41.212Z,92.65
2018-05-07T02:14:41.755Z,91.98
2018-05-07T02:15:42.301Z,92.07
2018-05-07T02:16:42.853Z,92.07
2018-05-07T02:17:43.408Z,91.98
2018-05-07T02:18:43.949Z,91.78
2018-05-07T02:19:44.499Z,91.98
2018-05-07T02:20:45.050Z,92.65
2018-05-07T02:21:45.595Z,92.74
2018-05-07T02:22:46.144Z,92.07
2018-05-07T02:23:46.688Z,93.02
2018-05-07T02:24:47.237Z,93.88
2018-05-07T02:25:47.783Z,94.65
2018-05-07T02:26:48.332Z,94.74
2018-05-07T02:27:48.887Z,96.17
2018-05-07T02:28:49.433Z,97.03
2018-05-07T02:29:49.987Z,96.84
2018-05-07T02:30:50.534Z,95.89
2018-05-07T02:31:51.081Z,96.46
2018-05-07T02:32:51.625Z,97.13
2018-05-07T02:33:52.176Z,97.71
2018-05-07T02:34:52.723Z,97.99
2018-05-07T02:35:53.268Z,97.80
2018-05-07T02:36:53.817Z,97.03
2018-05-07T02:37:54.365Z,97.71
2018-05-07T02:38:54.939Z,97.99
2018-05-07T02:39:55.464Z,97.61
2018-05-07T02:40:56.014Z,97.51
2018-05-07T02:41:56.562Z,97.51
2018-05-07T02:42:57.118Z,97.71
2018-05-07T02:43:57.660Z,97.85
2018-05-07T02:44:58.213Z,97.46
2018-05-07T02:45:58.754Z,96.22
2018-05-07T02:46:59.300Z,96.13
2018-05-07T02:47:59.849Z,96.41
2018-05-07T02:49:00.396Z,96.13
2018-05-07T02:50:00.942Z,96.32
2018-05-07T02:51:01.490Z,96.03
2018-05-07T02:52:02.039Z,96.51
2018-05-07T02:53:02.577Z,96.70
2018-05-07T02:54:03.124Z,96.89
2018-05-07T02:55:03.674Z,96.80
2018-05-07T02:56:04.220Z,97.03
2018-05-07T02:57:04.768Z,97.13
2018-05-07T02:58:05.317Z,96.94
2018-05-07T02:59:05.866Z,97.13
2018-05-07T03:00:06.414Z,96.66
2018-05-07T03:01:06.960Z,97.03
2018-05-07T03:02:07.512Z,97.71
2018-05-07T03:03:08.060Z,97.89
2018-05-07T03:04:08.611Z,98.75
2018-05-07T03:05:09.168Z,99.04
2018-05-07T03:06:09.700Z,99.13
2018-05-07T03:07:10.247Z,99.04
2018-05-07T03:08:10.795Z,99.18
2018-05-07T03:09:11.339Z,99.23
2018-05-07T03:10:11.881Z,99.37
2018-05-07T03:11:12.425Z,99.99
2018-05-07T03:12:13.034Z,99.99
2018-05-07T03:13:13.515Z,99.99
2018-05-07T03:14:14.064Z,99.99
2018-05-07T03:15:14.611Z,99.99
2018-05-07T03:16:15.158Z,99.99
2018-05-07T03:17:15.702Z,99.99
2018-05-07T03:18:16.249Z,99.99
2018-05-07T03:19:16.799Z,99.99
2018-05-07T03:20:17.347Z,99.99
2018-05-07T03:21:17.896Z,99.99
2018-05-07T03:22:18.443Z,99.95
2018-05-07T03:23:18.992Z,99.99
2018-05-07T03:24:19.539Z,99.99
2018-05-07T03:25:20.092Z,99.99
2018-05-07T03:26:20.636Z,99.99
2018-05-07T03:27:21.177Z,99.99
2018-05-07T03:28:21.723Z,99.99
2018-05-07T03:29:22.272Z,99.99
2018-05-07T03:30:22.818Z,99.99
2018-05-07T03:31:23.372Z,99.99
2018-05-07T03:32:23.914Z,99.99
2018-05-07T03:33:24.457Z,99.99
2018-05-07T03:34:25.008Z,99.99
2018-05-07T03:35:25.553Z,99.99
2018-05-07T03:36:26.101Z,99.99
2018-05-07T03:37:26.650Z,99.99
2018-05-07T03:38:27.197Z,99.99
2018-05-07T03:39:27.749Z,99.99
2018-05-07T03:40:28.309Z,99.99
2018-05-07T03:41:28.845Z,99.99
2018-05-07T03:42:29.395Z,99.99
2018-05-07T03:43:29.943Z,99.99
2018-05-07T03:44:30.495Z,99.99
2018-05-07T03:45:31.047Z,99.99
2018-05-07T03:46:31.600Z,99.99
2018-05-07T03:47:32.141Z,99.99
2018-05-07T03:48:32.700Z,99.99
2018-05-07T03:49:33.238Z,99.99
2018-05-07T03:50:33.786Z,99.99
2018-05-07T03:51:34.343Z,99.99
2018-05-07T03:52:34.886Z,99.99
2018-05-07T03:53:35.438Z,99.99
2018-05-07T03:54:35.990Z,99.99
2018-05-07T03:55:36.537Z,99.99
2018-05-07T03:56:37.089Z,99.99
2018-05-07T03:57:37.635Z,99.99
2018-05-07T03:58:38.189Z,99.99
2018-05-07T03:59:38.799Z,99.99
2018-05-07T04:00:39.287Z,99.99
2018-05-07T04:01:39.835Z,99.99
2018-05-07T04:02:40.381Z,99.99
2018-05-07T04:03:40.934Z,99.99
2018-05-07T04:04:41.487Z,99.99
2018-05-07T04:05:42.033Z,99.99
2018-05-07T04:06:42.586Z,99.99
2018-05-07T04:07:43.138Z,99.99
2018-05-07T04:08:43.691Z,99.99
2018-05-07T04:09:44.314Z,99.99
2018-05-07T04:10:44.785Z,99.99
2018-05-07T04:11:45.343Z,99.99
2018-05-07T04:12:45.885Z,99.99
2018-05-07T04:13:46.436Z,99.99
2018-05-07T04:14:46.986Z,99.99
2018-05-07T04:15:47.540Z,99.99
2018-05-07T04:16:48.091Z,99.99
2018-05-07T04:17:48.641Z,99.99
2018-05-07T04:18:49.195Z,99.99
2018-05-07T04:19:49.743Z,99.99
2018-05-07T04:20:50.290Z,99.99
2018-05-07T04:21:50.845Z,99.99
2018-05-07T04:22:51.399Z,99.99
2018-05-07T04:23:51.948Z,99.99
2018-05-07T04:24:52.502Z,99.99
2018-05-07T04:25:53.052Z,99.99
2018-05-07T04:26:53.602Z,99.99
2018-05-07T04:27:54.153Z,99.99
2018-05-07T04:28:54.708Z,99.99
2018-05-07T04:29:55.258Z,99.99
2018-05-07T04:30:55.809Z,99.99
2018-05-07T04:31:56.366Z,99.99
2018-05-07T04:32:56.910Z,99.99
2018-05-07T04:33:57.462Z,99.99
2018-05-07T04:34:58.016Z,99.99
2018-05-07T04:35:58.567Z,99.99
2018-05-07T04:36:59.120Z,99.99
2018-05-07T04:37:59.672Z,99.99
2018-05-07T04:39:00.225Z,99.99
2018-05-07T04:40:00.774Z,99.99
2018-05-07T04:41:01.329Z,99.99
2018-05-07T04:42:01.880Z,99.99
2018-05-07T04:43:02.429Z,99.99
2018-05-07T04:44:02.985Z,99.99
2018-05-07T04:45:03.542Z,99.99
2018-05-07T04:46:04.096Z,99.99
2018-05-07T04:47:04.652Z,99.99
2018-05-07T04:48:05.209Z,99.99
2018-05-07T04:49:05.759Z,99.19
2018-05-07T04:50:06.315Z,96.08
2018-05-07T04:51:06.865Z,93.50
2018-05-07T04:52:07.423Z,92.11
2018-05-07T04:53:07.981Z,92.07
2018-05-07T04:54:08.534Z,91.74
2018-05-07T04:55:09.156Z,90.97
2018-05-07T04:56:09.639Z,91.11
2018-05-07T04:57:10.196Z,90.82
2018-05-07T04:58:10.754Z,89.77
2018-05-07T04:59:11.306Z,88.38
2018-05-07T05:00:11.862Z,87.90
2018-05-07T05:01:12.417Z,87.90
2018-05-07T05:02:12.972Z,87.27
2018-05-07T05:03:13.528Z,86.17
2018-05-07T05:04:14.082Z,84.97
2018-05-07T05:05:14.640Z,82.52
2018-05-07T05:06:15.232Z,81.51
2018-05-07T05:07:15.825Z,79.44
2018-05-07T05:08:16.321Z,77.17
2018-05-07T05:09:16.884Z,75.73
2018-05-07T05:10:17.445Z,75.15
2018-05-07T05:11:18.008Z,75.15
2018-05-07T05:12:18.566Z,75.15
2018-05-07T05:13:19.132Z,74.87
2018-05-07T05:14:19.696Z,74.54
2018-05-07T05:15:20.256Z,74.96
2018-05-07T05:16:20.819Z,75.00
2018-05-07T05:17:21.378Z,73.88
2018-05-07T05:18:21.940Z,71.96
2018-05-07T05:19:22.500Z,72.02
2018-05-07T05:20:23.067Z,71.70
2018-05-07T05:21:23.642Z,72.91
2018-05-07T05:22:24.196Z,74.89
2018-05-07T05:23:24.755Z,76.10
2018-05-07T05:24:25.317Z,77.82
2018-05-07T05:25:25.878Z,79.36
2018-05-07T05:26:26.432Z,79.59
2018-05-07T05:27:27.016Z,78.23
2018-05-07T05:28:27.550Z,75.54
2018-05-07T05:29:28.114Z,75.25
2018-05-07T05:30:28.684Z,73.94
2018-05-07T05:31:29.244Z,72.50
2018-05-07T05:32:29.809Z,71.25
2018-05-07T05:33:30.369Z,70.97
2018-05-07T05:34:30.934Z,70.01
2018-05-07T05:35:31.498Z,69.37
2018-05-07T05:36:32.057Z,68.89
2018-05-07T05:37:32.625Z,68.79
2018-05-07T05:38:33.191Z,69.27
2018-05-07T05:39:33.752Z,70.29
2018-05-07T05:40:34.312Z,70.68
2018-05-07T05:41:34.877Z,71.16
2018-05-07T05:42:35.447Z,70.33
2018-05-07T05:43:36.042Z,68.92
2018-05-07T05:44:36.575Z,68.29
2018-05-07T05:45:37.140Z,67.35
2018-05-07T05:46:37.708Z,66.58
2018-05-07T05:47:38.274Z,66.30
2018-05-07T05:48:38.891Z,66.52
2018-05-07T05:49:39.463Z,67.71
2018-05-07T05:50:40.026Z,65.66
2018-05-07T05:51:40.594Z,64.08
2018-05-07T05:52:41.162Z,64.82
2018-05-07T05:53:41.725Z,67.32
2018-05-07T05:54:42.287Z,67.74
2018-05-07T05:55:42.855Z,66.58
2018-05-07T05:56:43.421Z,66.33
2018-05-07T05:57:43.992Z,65.01
2018-05-07T05:58:44.553Z,62.99
2018-05-07T05:59:45.118Z,62.63
2018-05-07T06:00:45.687Z,62.15
2018-05-07T06:01:46.259Z,62.54
2018-05-07T06:02:46.830Z,63.34
2018-05-07T06:03:47.469Z,61.44
2018-05-07T06:04:47.962Z,60.38
2018-05-07T06:05:48.535Z,59.42
2018-05-07T06:06:49.104Z,59.30
2018-05-07T06:07:49.679Z,60.16
2018-05-07T06:08:50.245Z,60.06
2018-05-07T06:09:50.873Z,60.06
2018-05-07T06:10:51.449Z,60.00
2018-05-07T06:11:52.020Z,59.71
2018-05-07T06:12:52.588Z,59.03
2018-05-07T06:13:53.156Z,58.84
2018-05-07T06:14:53.940Z,59.03
2018-05-07T06:15:54.292Z,58.55
2018-05-07T06:16:54.861Z,58.84
2018-05-07T06:17:55.429Z,59.03
2018-05-07T06:18:56.002Z,58.77
2018-05-07T06:19:56.573Z,58.29
2018-05-07T06:20:57.144Z,58.29
2018-05-07T06:21:57.718Z,58.48
2018-05-07T06:22:58.281Z,58.48
2018-05-07T06:23:58.847Z,59.00
2018-05-07T06:24:59.420Z,58.29
2018-05-07T06:25:59.990Z,58.39
2018-05-07T06:27:00.565Z,57.93
2018-05-07T06:28:01.135Z,57.93
2018-05-07T06:29:01.706Z,57.84
2018-05-07T06:30:02.271Z,57.74
2018-05-07T06:31:02.841Z,57.57
2018-05-07T06:32:03.416Z,57.03
2018-05-07T06:33:03.987Z,56.22
2018-05-07T06:34:04.558Z,56.41
2018-05-07T06:35:05.131Z,57.19
2018-05-07T06:36:05.713Z,56.90
2018-05-07T06:37:06.283Z,57.57
2018-05-07T06:38:06.854Z,56.25
2018-05-07T06:39:07.426Z,56.15
2018-05-07T06:40:07.994Z,55.77
2018-05-07T06:41:08.569Z,55.96
2018-05-07T06:42:09.144Z,56.03
2018-05-07T06:43:09.714Z,55.89
2018-05-07T06:44:10.287Z,55.89
2018-05-07T06:45:10.850Z,55.67
2018-05-07T06:46:11.417Z,55.47
2018-05-07T06:47:11.989Z,55.19
2018-05-07T06:48:12.562Z,55.67
2018-05-07T06:49:13.139Z,55.67
2018-05-07T06:50:13.709Z,55.87
2018-05-07T06:51:14.281Z,55.96
2018-05-07T06:52:14.996Z,55.77
2018-05-07T06:53:15.416Z,56.05
2018-05-07T06:54:15.993Z,55.96
2018-05-07T06:55:16.565Z,55.96
2018-05-07T06:56:17.133Z,56.05
2018-05-07T06:57:17.707Z,55.96
2018-05-07T06:58:18.280Z,55.96
2018-05-07T06:59:18.850Z,55.87
2018-05-07T07:00:19.446Z,56.05
2018-05-07T07:01:19.993Z,56.05
2018-05-07T07:02:20.653Z,55.96
2018-05-07T07:03:21.131Z,55.83
2018-05-07T07:04:21.707Z,56.13
2018-05-07T07:05:22.278Z,56.20
2018-05-07T07:06:22.848Z,56.80
2018-05-07T07:07:23.471Z,56.00
2018-05-07T07:08:24.159Z,56.16
2018-05-07T07:09:24.552Z,56.00
2018-05-07T07:10:25.124Z,56.48
2018-05-07T07:11:25.697Z,56.68
2018-05-07T07:12:26.268Z,56.77
2018-05-07T07:13:26.836Z,56.32
2018-05-07T07:14:27.413Z,56.51
2018-05-07T07:15:27.986Z,56.63
2018-05-07T07:16:28.566Z,56.09
2018-05-07T07:17:29.127Z,55.89
2018-05-07T07:18:29.694Z,55.05
2018-05-07T07:19:30.268Z,54.93
2018-05-07T07:20:30.843Z,54.25
2018-05-07T07:21:31.415Z,54.57
2018-05-07T07:22:31.986Z,54.57
2018-05-07T07:23:32.553Z,54.47
2018-05-07T07:24:33.125Z,54.37
2018-05-07T07:25:33.698Z,53.74
2018-05-07T07:26:34.268Z,54.61
2018-05-07T07:27:34.845Z,55.65
2018-05-07T07:28:35.421Z,55.67
2018-05-07T07:29:35.987Z,55.21
2018-05-07T07:30:36.558Z,54.61
2018-05-07T07:31:37.123Z,54.63
2018-05-07T07:32:37.698Z,53.64
2018-05-07T07:33:38.348Z,54.58
2018-05-07T07:34:38.835Z,55.19
2018-05-07T07:35:39.405Z,54.53
2018-05-07T07:36:39.979Z,53.77
2018-05-07T07:37:40.553Z,53.69
2018-05-07T07:38:41.129Z,53.02
2018-05-07T07:39:41.696Z,52.95
2018-05-07T07:40:42.263Z,52.85
2018-05-07T07:41:42.832Z,52.75
2018-05-07T07:42:43.406Z,53.17
2018-05-07T07:43:43.976Z,52.00
2018-05-07T07:44:44.551Z,51.50
2018-05-07T07:45:45.130Z,51.56
2018-05-07T07:46:45.702Z,52.92
2018-05-07T07:47:46.277Z,52.63
2018-05-07T07:48:46.847Z,52.34
2018-05-07T07:49:47.420Z,52.75
2018-05-07T07:50:47.988Z,51.68
2018-05-07T07:51:48.561Z,52.00
2018-05-07T07:52:49.133Z,51.90
2018-05-07T07:53:49.713Z,53.39
2018-05-07T07:54:50.279Z,51.54
2018-05-07T07:55:50.859Z,51.64
2018-05-07T07:56:51.432Z,50.96
2018-05-07T07:57:52.012Z,51.64
2018-05-07T07:58:52.590Z,52.42
2018-05-07T07:59:53.164Z,52.90
2018-05-07T08:00:53.729Z,52.80
2018-05-07T08:01:54.301Z,51.74
2018-05-07T08:02:54.872Z,52.32
2018-05-07T08:03:55.496Z,52.32
2018-05-07T08:04:56.069Z,53.00
2018-05-07T08:05:56.641Z,52.71
2018-05-07T08:06:57.218Z,53.00
2018-05-07T08:07:57.789Z,53.09
2018-05-07T08:08:58.369Z,53.17
2018-05-07T08:09:58.945Z,52.80
2018-05-07T08:10:59.508Z,52.90
2018-05-07T08:12:00.143Z,52.18
2018-05-07T08:13:00.650Z,51.98
2018-05-07T08:14:01.221Z,51.59
2018-05-07T08:15:01.804Z,50.82
2018-05-07T08:16:02.383Z,50.72
2018-05-07T08:17:02.953Z,51.57
2018-05-07T08:18:03.526Z,52.28
2018-05-07T08:19:04.102Z,52.66
2018-05-07T08:20:04.882Z,51.18
2018-05-07T08:21:05.455Z,51.84
2018-05-07T08:22:06.026Z,53.09
2018-05-07T08:23:06.598Z,53.39
2018-05-07T08:24:07.177Z,52.80
2018-05-07T08:25:07.745Z,52.80
2018-05-07T08:26:08.327Z,53.97
2018-05-07T08:27:08.893Z,52.73
2018-05-07T08:28:09.466Z,52.64
2018-05-07T08:29:10.035Z,53.34
2018-05-07T08:30:10.601Z,52.25
2018-05-07T08:31:11.170Z,51.86
2018-05-07T08:32:11.747Z,52.73
2018-05-07T08:33:12.315Z,52.95
2018-05-07T08:34:12.885Z,52.47
2018-05-07T08:35:13.455Z,51.31
2018-05-07T08:36:14.028Z,51.11
2018-05-07T08:37:14.605Z,51.62
2018-05-07T08:38:15.179Z,52.18
2018-05-07T08:39:15.756Z,51.43
2018-05-07T08:40:16.535Z,51.31
2018-05-07T08:41:17.111Z,52.25
2018-05-07T08:42:17.694Z,53.05
2018-05-07T08:43:18.253Z,52.66
2018-05-07T08:44:18.824Z,53.15
2018-05-07T08:45:19.391Z,52.28
2018-05-07T08:46:19.985Z,52.01
2018-05-07T08:47:20.558Z,52.98
2018-05-07T08:48:21.143Z,51.62
2018-05-07T08:49:21.712Z,51.59
2018-05-07T08:50:22.343Z,52.47
2018-05-07T08:51:22.848Z,51.21
2018-05-07T08:52:23.418Z,51.62
2018-05-07T08:53:23.988Z,52.52
2018-05-07T08:54:24.561Z,51.21
2018-05-07T08:55:25.127Z,51.72
2018-05-07T08:56:25.692Z,51.84
2018-05-07T08:57:26.260Z,51.28
2018-05-07T08:58:26.824Z,49.92
2018-05-07T08:59:27.395Z,48.93
2018-05-07T09:00:28.171Z,50.16
2018-05-07T09:01:28.741Z,51.26
2018-05-07T09:02:29.322Z,51.06
2018-05-07T09:03:29.902Z,51.09
2018-05-07T09:04:30.470Z,51.67
2018-05-07T09:05:31.047Z,50.51
2018-05-07T09:06:31.623Z,49.05
2018-05-07T09:07:32.200Z,48.37
2018-05-07T09:08:32.766Z,49.22
2018-05-07T09:09:33.342Z,51.75
2018-05-07T09:10:33.919Z,49.92
2018-05-07T09:11:34.489Z,49.34
2018-05-07T09:12:35.065Z,49.66
2018-05-07T09:13:35.699Z,49.92
2018-05-07T09:14:36.206Z,49.66
2018-05-07T09:15:36.773Z,49.54
2018-05-07T09:16:37.345Z,50.48
2018-05-07T09:17:37.920Z,49.99
2018-05-07T09:18:38.506Z,49.71
2018-05-07T09:19:39.093Z,47.76
2018-05-07T09:20:39.684Z,48.93
2018-05-07T09:21:40.264Z,47.59
2018-05-07T09:22:40.844Z,46.72
2018-05-07T09:23:41.426Z,48.05
2018-05-07T09:24:42.036Z,48.25
2018-05-07T09:25:42.559Z,48.25
2018-05-07T09:26:43.131Z,48.75
2018-05-07T09:27:43.703Z,48.66
2018-05-07T09:28:44.271Z,48.10
2018-05-07T09:29:44.846Z,48.95
2018-05-07T09:30:45.417Z,48.85
2018-05-07T09:31:45.989Z,48.75
2018-05-07T09:32:46.560Z,49.17
2018-05-07T09:33:47.130Z,49.07
2018-05-07T09:34:47.695Z,49.27
2018-05-07T09:35:48.267Z,49.63
2018-05-07T09:36:48.836Z,49.02
2018-05-07T09:37:49.404Z,48.27
2018-05-07T09:38:49.976Z,47.98
2018-05-07T09:39:50.548Z,48.85
2018-05-07T09:40:51.125Z,49.24
2018-05-07T09:41:51.692Z,48.20
2018-05-07T09:42:52.263Z,47.88
2018-05-07T09:43:52.832Z,47.81
2018-05-07T09:44:53.396Z,48.88
2018-05-07T09:45:53.972Z,48.97
2018-05-07T09:46:54.541Z,50.43
2018-05-07T09:47:55.121Z,49.10
2018-05-07T09:48:55.688Z,49.27
2018-05-07T09:49:56.249Z,48.30
2018-05-07T09:50:56.823Z,47.01
2018-05-07T09:51:57.386Z,47.20
2018-05-07T09:52:57.969Z,47.91
2018-05-07T09:53:58.536Z,47.81
2018-05-07T09:54:59.117Z,47.61
2018-05-07T09:55:59.685Z,46.64
2018-05-07T09:57:00.297Z,47.69
2018-05-07T09:58:00.843Z,47.78
2018-05-07T09:59:01.415Z,46.81
2018-05-07T10:00:01.991Z,47.20
2018-05-07T10:01:02.558Z,47.78
2018-05-07T10:02:03.124Z,48.25
2018-05-07T10:03:03.693Z,48.25
2018-05-07T10:04:04.273Z,47.08
2018-05-07T10:05:04.861Z,47.55
2018-05-07T10:06:05.424Z,48.13
2018-05-07T10:07:06.004Z,49.02
2018-05-07T10:08:06.578Z,48.20
2018-05-07T10:09:07.148Z,48.88
2018-05-07T10:10:07.728Z,48.20
2018-05-07T10:11:08.317Z,47.72
2018-05-07T10:12:08.898Z,48.03
2018-05-07T10:13:09.490Z,48.42
2018-05-07T10:14:10.276Z,48.05
2018-05-07T10:15:10.865Z,48.44
2018-05-07T10:16:11.452Z,48.54
2018-05-07T10:17:12.046Z,48.27
2018-05-07T10:18:12.830Z,48.83
2018-05-07T10:19:13.533Z,49.44
2018-05-07T10:20:14.118Z,47.81
2018-05-07T10:21:14.692Z,47.20
2018-05-07T10:22:15.277Z,49.05
2018-05-07T10:23:15.865Z,50.14
2018-05-07T10:24:16.512Z,48.10
2018-05-07T10:25:17.012Z,47.91
2018-05-07T10:26:17.586Z,48.22
2018-05-07T10:27:18.165Z,47.15
2018-05-07T10:28:18.741Z,47.42
2018-05-07T10:29:19.324Z,46.37
2018-05-07T10:30:19.896Z,45.97
2018-05-07T10:31:20.473Z,45.07
2018-05-07T10:32:21.056Z,46.74
2018-05-07T10:33:21.644Z,46.81
2018-05-07T10:34:22.230Z,44.95
2018-05-07T10:35:22.832Z,45.92
2018-05-07T10:36:23.394Z,45.70
2018-05-07T10:37:23.975Z,46.41
2018-05-07T10:38:24.559Z,46.33
2018-05-07T10:39:25.192Z,45.43
2018-05-07T10:40:25.734Z,45.62
2018-05-07T10:41:26.323Z,45.82
2018-05-07T10:42:26.909Z,45.72
2018-05-07T10:43:27.491Z,45.94
2018-05-07T10:44:28.069Z,46.06
2018-05-07T10:45:28.643Z,45.18
2018-05-07T10:46:29.223Z,45.28
2018-05-07T10:47:29.811Z,44.92
2018-05-07T10:48:30.391Z,45.01
2018-05-07T10:49:30.975Z,44.79
2018-05-07T10:50:31.558Z,44.60
2018-05-07T10:51:32.137Z,44.02
2018-05-07T10:52:32.704Z,43.65
2018-05-07T10:53:33.291Z,43.58
2018-05-07T10:54:33.862Z,43.09
2018-05-07T10:55:34.446Z,44.55
2018-05-07T10:56:35.033Z,43.58
2018-05-07T10:57:35.622Z,43.09
2018-05-07T10:58:36.206Z,42.29
2018-05-07T11:00:52.257Z,43.07
2018-05-07T11:01:52.836Z,42.68
2018-05-07T11:02:53.417Z,44.04
2018-05-07T11:03:53.984Z,44.55
2018-05-07T11:04:54.559Z,45.25
2018-05-07T11:05:55.131Z,45.18
2018-05-07T11:06:55.714Z,43.01
2018-05-07T11:07:56.296Z,42.99
2018-05-07T11:08:56.858Z,42.24
2018-05-07T11:09:57.441Z,41.85
2018-05-07T11:10:58.014Z,42.41
2018-05-07T11:11:58.589Z,43.38
2018-05-07T11:12:59.163Z,43.79
2018-05-07T11:13:59.734Z,42.82
2018-05-07T11:15:00.366Z,43.43
2018-05-07T11:16:00.951Z,43.04
2018-05-07T11:17:01.525Z,41.96
2018-05-07T11:18:02.113Z,42.16
2018-05-07T11:19:02.678Z,41.86
2018-05-07T11:20:03.258Z,42.25
2018-05-07T11:21:03.827Z,43.43
2018-05-07T11:22:04.405Z,43.44
2018-05-07T11:23:04.974Z,43.57
2018-05-07T11:24:05.547Z,42.32
2018-05-07T11:25:06.118Z,42.30
2018-05-07T11:26:06.695Z,41.42
2018-05-07T11:27:07.262Z,39.96
2018-05-07T11:28:07.828Z,41.57
2018-05-07T11:29:08.401Z,40.29
2018-05-07T11:30:08.969Z,40.11
2018-05-07T11:31:09.605Z,39.04
2018-05-07T11:32:10.102Z,39.34
2018-05-07T11:33:10.672Z,39.84
2018-05-07T11:34:11.249Z,39.16
2018-05-07T11:35:11.825Z,40.31
2018-05-07T11:36:12.394Z,39.84
2018-05-07T11:37:12.968Z,39.67
2018-05-07T11:38:13.543Z,40.64
2018-05-07T11:39:14.109Z,40.47
2018-05-07T11:40:14.684Z,39.90
2018-05-07T11:41:34.459Z,38.90
2018-05-07T11:42:35.032Z,41.03
2018-05-07T11:43:35.607Z,39.49
2018-05-07T11:44:36.179Z,38.61
2018-05-07T11:45:36.757Z,39.20
2018-05-07T11:46:37.339Z,40.91
2018-05-07T11:47:38.012Z,42.00
2018-05-07T11:48:38.474Z,41.05
2018-05-07T11:49:39.053Z,41.54
2018-05-07T11:50:39.636Z,42.26
2018-05-07T11:51:40.219Z,41.67
2018-05-07T11:52:40.793Z,41.58
2018-05-07T11:53:41.369Z,40.41
2018-05-07T11:54:41.947Z,39.75
2018-05-07T11:55:42.520Z,38.09
2018-05-07T11:56:43.093Z,38.28
2018-05-07T11:57:43.672Z,38.28
2018-05-07T11:58:44.245Z,38.16
2018-05-07T11:59:44.820Z,38.35
2018-05-07T12:00:45.421Z,38.87
2018-05-07T12:01:45.970Z,40.72
2018-05-07T12:02:46.634Z,38.79
2018-05-07T12:03:47.107Z,38.89
2018-05-07T12:04:47.688Z,38.89
2018-05-07T12:05:48.262Z,38.69
2018-05-07T12:06:48.848Z,39.75
2018-05-07T12:07:49.419Z,41.31
2018-05-07T12:08:49.992Z,41.52
2018-05-07T12:09:50.571Z,38.67
2018-05-07T12:10:51.141Z,38.35
2018-05-07T12:11:51.720Z,38.77
2018-05-07T12:12:52.303Z,38.32
2018-05-07T12:13:53.087Z,38.22
2018-05-07T12:14:53.667Z,38.40
2018-05-07T12:15:54.260Z,38.57
2018-05-07T12:16:54.808Z,38.35
2018-05-07T12:17:55.391Z,38.87
2018-05-07T12:18:55.963Z,39.10
2018-05-07T12:19:56.546Z,38.20
2018-05-07T12:20:57.131Z,38.32
2018-05-07T12:21:57.730Z,38.40
2018-05-07T12:22:58.412Z,37.96
2018-05-07T12:23:58.905Z,38.48
2018-05-07T12:24:59.486Z,39.08
2018-05-07T12:26:00.086Z,40.64
2018-05-07T12:27:00.661Z,38.87
2018-05-07T12:28:01.248Z,38.96
2018-05-07T12:29:01.822Z,38.09
2018-05-07T12:30:02.391Z,38.10
2018-05-07T12:31:02.969Z,39.08
2018-05-07T12:32:03.548Z,39.20
2018-05-07T12:33:04.127Z,39.08
2018-05-07T12:34:04.703Z,37.57
2018-05-07T12:35:05.280Z,39.02
2018-05-07T12:36:05.850Z,39.84
2018-05-07T12:37:06.431Z,40.55
2018-05-07T12:38:07.000Z,38.26
2018-05-07T12:39:07.572Z,38.87
2018-05-07T12:40:08.160Z,38.38
2018-05-07T12:41:08.781Z,38.57
2018-05-07T12:42:09.347Z,38.67
2018-05-07T12:43:09.927Z,39.86
2018-05-07T12:44:10.500Z,38.48
2018-05-07T12:45:11.089Z,38.77
2018-05-07T12:46:11.658Z,40.45
2018-05-07T12:47:12.234Z,38.98
2018-05-07T12:48:12.904Z,38.69
2018-05-07T12:49:13.399Z,38.42
2018-05-07T12:50:14.179Z,39.41
2018-05-07T12:51:14.843Z,39.62
2018-05-07T12:52:15.538Z,36.88
2018-05-07T12:53:16.117Z,36.88
2018-05-07T12:54:16.688Z,37.27
2018-05-07T12:55:17.278Z,37.16
2018-05-07T12:56:17.849Z,37.75
2018-05-07T12:57:18.495Z,38.49
2018-05-07T12:58:19.116Z,37.71
2018-05-07T12:59:19.723Z,39.06
2018-05-07T13:00:20.295Z,38.87
2018-05-07T13:01:20.877Z,38.67
2018-05-07T13:02:21.470Z,39.06